Arsenal, Pennsylvania
Current Conditions -  °F | °C
As of 12:53 PM on Friday 28 Nov 2014 (Local Time) from KAGC Reporting Station
Broken Clouds Broken Clouds  
Wind Chill: 22°   Ceiling: 3600
Heat Index: 27°   Visibility: 10mi
Dew Point: 11°   Wind: 5mph
Humidity: 51%   Direction: NA
Pressure: 30.26"   Gusts: NA
Location:  40.4738°N, 79.952°W
Report Text: KAGC 281753Z VRB04KT 10SM BKN036 M03/M12 A3026 RMK AO2 SLP266 T10281117 11028 21044 58017
Loading
Personal Weather Stations






























Interactive Weather Map New forecast layout! Learn more

10-Day Weather Forecast

Advertisements
Track Severe Weather on mobile